sensor_id;sensor_type;location;lat;lon;timestamp;P1;durP1;ratioP1;P2;durP2;ratioP2
79124;SDS011;68527;39.470;-0.376;2023-06-10T00:01:49;6.40;;;5.10;;
79124;SDS011;68527;39.470;-0.376;2023-06-10T00:04:15;7.60;;;5.00;;
79124;SDS011;68527;39.470;-0.376;2023-06-10T00:06:42;6.80;;;4.90;;
79124;SDS011;68527;39.470;-0.376;2023-06-10T00:09:13;6.70;;;4.50;;
79124;SDS011;68527;39.470;-0.376;2023-06-10T00:11:39;6.10;;;4.50;;
79124;SDS011;68527;39.470;-0.376;2023-06-10T00:14:05;6.30;;;4.50;;
79124;SDS011;68527;39.470;-0.376;2023-06-10T00:16:32;6.40;;;4.60;;
79124;SDS011;68527;39.470;-0.376;2023-06-10T00:18:59;6.20;;;4.70;;
79124;SDS011;68527;39.470;-0.376;2023-06-10T00:21:29;6.50;;;4.60;;
79124;SDS011;68527;39.470;-0.376;2023-06-10T00:24:05;5.60;;;4.20;;
79124;SDS011;68527;39.470;-0.376;2023-06-10T00:26:32;6.30;;;4.60;;
79124;SDS011;68527;39.470;-0.376;2023-06-10T00:28:58;6.20;;;4.70;;
79124;SDS011;68527;39.470;-0.376;2023-06-10T00:31:24;5.40;;;4.20;;
79124;SDS011;68527;39.470;-0.376;2023-06-10T00:33:51;5.70;;;4.60;;
79124;SDS011;68527;39.470;-0.376;2023-06-10T00:36:17;7.30;;;4.70;;
79124;SDS011;68527;39.470;-0.376;2023-06-10T00:38:43;5.60;;;4.60;;
79124;SDS011;68527;39.470;-0.376;2023-06-10T00:41:08;6.10;;;4.50;;
79124;SDS011;68527;39.470;-0.376;2023-06-10T00:43:34;5.80;;;4.50;;
79124;SDS011;68527;39.470;-0.376;2023-06-10T00:46:00;5.70;;;4.40;;
79124;SDS011;68527;39.470;-0.376;2023-06-10T00:48:26;5.60;;;4.00;;
79124;SDS011;68527;39.470;-0.376;2023-06-10T00:50:52;6.00;;;4.00;;
79124;SDS011;68527;39.470;-0.376;2023-06-10T00:53:18;5.10;;;4.00;;
79124;SDS011;68527;39.470;-0.376;2023-06-10T00:55:44;4.80;;;3.80;;
79124;SDS011;68527;39.470;-0.376;2023-06-10T00:58:10;5.50;;;4.00;;
79124;SDS011;68527;39.470;-0.376;2023-06-10T01:00:35;5.70;;;4.60;;
79124;SDS011;68527;39.470;-0.376;2023-06-10T01:03:02;5.00;;;3.90;;
79124;SDS011;68527;39.470;-0.376;2023-06-10T01:05:33;4.60;;;3.60;;
79124;SDS011;68527;39.470;-0.376;2023-06-10T01:10:45;4.70;;;4.00;;
79124;SDS011;68527;39.470;-0.376;2023-06-10T01:13:14;5.40;;;4.10;;
79124;SDS011;68527;39.470;-0.376;2023-06-10T01:15:40;5.00;;;4.00;;
79124;SDS011;68527;39.470;-0.376;2023-06-10T01:18:09;5.50;;;4.00;;
79124;SDS011;68527;39.470;-0.376;2023-06-10T01:20:40;4.40;;;3.40;;
79124;SDS011;68527;39.470;-0.376;2023-06-10T01:23:08;4.90;;;3.40;;
79124;SDS011;68527;39.470;-0.376;2023-06-10T01:25:38;5.00;;;3.90;;
79124;SDS011;68527;39.470;-0.376;2023-06-10T01:31:16;5.30;;;4.00;;
79124;SDS011;68527;39.470;-0.376;2023-06-10T01:33:47;4.70;;;3.20;;
79124;SDS011;68527;39.470;-0.376;2023-06-10T01:36:13;5.10;;;3.70;;
79124;SDS011;68527;39.470;-0.376;2023-06-10T01:38:44;4.00;;;3.50;;
79124;SDS011;68527;39.470;-0.376;2023-06-10T01:41:16;5.50;;;4.10;;
79124;SDS011;68527;39.470;-0.376;2023-06-10T01:43:43;4.80;;;3.80;;
79124;SDS011;68527;39.470;-0.376;2023-06-10T01:46:09;5.70;;;3.90;;
79124;SDS011;68527;39.470;-0.376;2023-06-10T01:48:36;4.30;;;3.50;;
79124;SDS011;68527;39.470;-0.376;2023-06-10T01:51:03;5.40;;;3.60;;
79124;SDS011;68527;39.470;-0.376;2023-06-10T01:53:28;4.60;;;3.50;;
79124;SDS011;68527;39.470;-0.376;2023-06-10T01:55:54;4.30;;;3.60;;
79124;SDS011;68527;39.470;-0.376;2023-06-10T01:58:19;4.60;;;3.50;;
79124;SDS011;68527;39.470;-0.376;2023-06-10T02:00:45;4.90;;;3.40;;
79124;SDS011;68527;39.470;-0.376;2023-06-10T02:03:11;4.60;;;3.70;;
79124;SDS011;68527;39.470;-0.376;2023-06-10T02:05:37;4.60;;;3.60;;
79124;SDS011;68527;39.470;-0.376;2023-06-10T02:08:03;5.20;;;3.80;;
79124;SDS011;68527;39.470;-0.376;2023-06-10T02:10:28;4.10;;;3.10;;
79124;SDS011;68527;39.470;-0.376;2023-06-10T02:12:54;4.60;;;3.40;;
79124;SDS011;68527;39.470;-0.376;2023-06-10T02:15:20;4.20;;;3.40;;
79124;SDS011;68527;39.470;-0.376;2023-06-10T02:17:45;4.60;;;3.60;;
79124;SDS011;68527;39.470;-0.376;2023-06-10T02:20:11;5.30;;;3.60;;
79124;SDS011;68527;39.470;-0.376;2023-06-10T02:22:37;4.80;;;3.40;;
79124;SDS011;68527;39.470;-0.376;2023-06-10T02:25:03;4.70;;;3.30;;
79124;SDS011;68527;39.470;-0.376;2023-06-10T02:27:29;5.40;;;3.80;;
79124;SDS011;68527;39.470;-0.376;2023-06-10T02:29:55;5.30;;;3.70;;
79124;SDS011;68527;39.470;-0.376;2023-06-10T02:32:21;4.50;;;3.40;;
79124;SDS011;68527;39.470;-0.376;2023-06-10T02:34:47;5.00;;;3.50;;
79124;SDS011;68527;39.470;-0.376;2023-06-10T02:37:14;5.20;;;3.80;;
79124;SDS011;68527;39.470;-0.376;2023-06-10T02:39:40;4.30;;;3.40;;
79124;SDS011;68527;39.470;-0.376;2023-06-10T02:42:06;4.40;;;3.50;;
79124;SDS011;68527;39.470;-0.376;2023-06-10T02:44:32;4.00;;;3.30;;
79124;SDS011;68527;39.470;-0.376;2023-06-10T02:46:58;4.50;;;3.40;;
79124;SDS011;68527;39.470;-0.376;2023-06-10T02:49:24;4.50;;;3.40;;
79124;SDS011;68527;39.470;-0.376;2023-06-10T02:51:52;4.60;;;3.60;;
79124;SDS011;68527;39.470;-0.376;2023-06-10T02:54:19;4.70;;;3.40;;
79124;SDS011;68527;39.470;-0.376;2023-06-10T02:56:45;5.10;;;3.80;;
79124;SDS011;68527;39.470;-0.376;2023-06-10T02:59:13;4.50;;;3.50;;
79124;SDS011;68527;39.470;-0.376;2023-06-10T03:01:39;4.30;;;3.30;;
79124;SDS011;68527;39.470;-0.376;2023-06-10T03:04:05;4.90;;;3.40;;
79124;SDS011;68527;39.470;-0.376;2023-06-10T03:06:31;4.50;;;3.40;;
79124;SDS011;68527;39.470;-0.376;2023-06-10T03:08:59;4.20;;;3.30;;
79124;SDS011;68527;39.470;-0.376;2023-06-10T03:11:25;3.90;;;3.10;;
79124;SDS011;68527;39.470;-0.376;2023-06-10T03:13:51;4.00;;;3.40;;
79124;SDS011;68527;39.470;-0.376;2023-06-10T03:16:18;4.90;;;3.90;;
79124;SDS011;68527;39.470;-0.376;2023-06-10T03:18:44;4.60;;;3.40;;
79124;SDS011;68527;39.470;-0.376;2023-06-10T03:21:10;4.50;;;3.50;;
79124;SDS011;68527;39.470;-0.376;2023-06-10T03:23:36;5.00;;;3.80;;
79124;SDS011;68527;39.470;-0.376;2023-06-10T03:26:02;5.10;;;3.60;;
79124;SDS011;68527;39.470;-0.376;2023-06-10T03:28:30;4.30;;;3.30;;
79124;SDS011;68527;39.470;-0.376;2023-06-10T03:30:56;4.00;;;3.30;;
79124;SDS011;68527;39.470;-0.376;2023-06-10T03:33:22;5.00;;;3.20;;
79124;SDS011;68527;39.470;-0.376;2023-06-10T03:35:48;4.00;;;3.30;;
79124;SDS011;68527;39.470;-0.376;2023-06-10T03:38:13;3.90;;;3.50;;
79124;SDS011;68527;39.470;-0.376;2023-06-10T03:40:39;4.00;;;2.90;;
79124;SDS011;68527;39.470;-0.376;2023-06-10T03:43:05;4.50;;;3.60;;
79124;SDS011;68527;39.470;-0.376;2023-06-10T03:45:31;4.80;;;3.50;;
79124;SDS011;68527;39.470;-0.376;2023-06-10T03:47:57;4.30;;;3.40;;
79124;SDS011;68527;39.470;-0.376;2023-06-10T03:50:23;3.90;;;3.00;;
79124;SDS011;68527;39.470;-0.376;2023-06-10T03:52:49;4.20;;;3.30;;
79124;SDS011;68527;39.470;-0.376;2023-06-10T03:55:15;4.30;;;3.20;;
79124;SDS011;68527;39.470;-0.376;2023-06-10T03:57:42;3.90;;;3.20;;
79124;SDS011;68527;39.470;-0.376;2023-06-10T04:00:08;4.20;;;3.00;;
79124;SDS011;68527;39.470;-0.376;2023-06-10T04:02:37;4.10;;;3.30;;
79124;SDS011;68527;39.470;-0.376;2023-06-10T04:05:11;3.80;;;3.20;;
79124;SDS011;68527;39.470;-0.376;2023-06-10T04:07:37;3.90;;;3.10;;
79124;SDS011;68527;39.470;-0.376;2023-06-10T04:10:06;4.40;;;3.50;;
79124;SDS011;68527;39.470;-0.376;2023-06-10T04:12:32;4.20;;;3.40;;
79124;SDS011;68527;39.470;-0.376;2023-06-10T04:14:57;4.40;;;3.80;;
79124;SDS011;68527;39.470;-0.376;2023-06-10T04:17:23;5.40;;;3.30;;
79124;SDS011;68527;39.470;-0.376;2023-06-10T04:19:49;4.80;;;3.20;;
79124;SDS011;68527;39.470;-0.376;2023-06-10T04:22:15;4.80;;;3.10;;
79124;SDS011;68527;39.470;-0.376;2023-06-10T04:24:41;3.80;;;3.40;;
79124;SDS011;68527;39.470;-0.376;2023-06-10T04:27:07;5.30;;;3.60;;
79124;SDS011;68527;39.470;-0.376;2023-06-10T04:29:33;4.70;;;3.20;;
79124;SDS011;68527;39.470;-0.376;2023-06-10T04:31:59;5.00;;;3.20;;
79124;SDS011;68527;39.470;-0.376;2023-06-10T04:34:26;4.40;;;3.30;;
79124;SDS011;68527;39.470;-0.376;2023-06-10T04:36:52;4.30;;;3.20;;
79124;SDS011;68527;39.470;-0.376;2023-06-10T04:39:18;4.00;;;3.00;;
79124;SDS011;68527;39.470;-0.376;2023-06-10T04:41:43;4.50;;;3.00;;
79124;SDS011;68527;39.470;-0.376;2023-06-10T04:44:09;4.80;;;3.30;;
79124;SDS011;68527;39.470;-0.376;2023-06-10T04:46:36;5.30;;;3.60;;
79124;SDS011;68527;39.470;-0.376;2023-06-10T04:49:01;4.30;;;2.90;;
79124;SDS011;68527;39.470;-0.376;2023-06-10T04:51:27;3.80;;;2.90;;
79124;SDS011;68527;39.470;-0.376;2023-06-10T04:53:53;4.00;;;2.90;;
79124;SDS011;68527;39.470;-0.376;2023-06-10T04:56:18;4.30;;;3.10;;
79124;SDS011;68527;39.470;-0.376;2023-06-10T04:58:45;4.00;;;3.10;;
79124;SDS011;68527;39.470;-0.376;2023-06-10T05:01:10;3.80;;;2.80;;
79124;SDS011;68527;39.470;-0.376;2023-06-10T05:03:36;4.00;;;3.30;;
79124;SDS011;68527;39.470;-0.376;2023-06-10T05:06:02;4.00;;;3.30;;
79124;SDS011;68527;39.470;-0.376;2023-06-10T05:08:27;4.10;;;3.00;;
79124;SDS011;68527;39.470;-0.376;2023-06-10T05:10:53;3.70;;;3.00;;
79124;SDS011;68527;39.470;-0.376;2023-06-10T05:13:19;4.70;;;3.20;;
79124;SDS011;68527;39.470;-0.376;2023-06-10T05:15:44;3.60;;;3.10;;
79124;SDS011;68527;39.470;-0.376;2023-06-10T05:18:11;3.80;;;2.70;;
79124;SDS011;68527;39.470;-0.376;2023-06-10T05:20:40;4.00;;;2.50;;
79124;SDS011;68527;39.470;-0.376;2023-06-10T05:23:05;4.30;;;3.20;;
79124;SDS011;68527;39.470;-0.376;2023-06-10T05:25:31;3.30;;;2.50;;
79124;SDS011;68527;39.470;-0.376;2023-06-10T05:27:57;4.70;;;2.80;;
79124;SDS011;68527;39.470;-0.376;2023-06-10T05:30:23;4.40;;;3.10;;
79124;SDS011;68527;39.470;-0.376;2023-06-10T05:32:50;3.50;;;2.90;;
79124;SDS011;68527;39.470;-0.376;2023-06-10T05:35:16;4.00;;;2.80;;
79124;SDS011;68527;39.470;-0.376;2023-06-10T05:37:42;4.40;;;3.20;;
79124;SDS011;68527;39.470;-0.376;2023-06-10T05:40:08;3.40;;;2.80;;
79124;SDS011;68527;39.470;-0.376;2023-06-10T05:42:35;3.80;;;3.10;;
79124;SDS011;68527;39.470;-0.376;2023-06-10T05:45:00;4.00;;;3.10;;
79124;SDS011;68527;39.470;-0.376;2023-06-10T05:47:27;3.50;;;2.80;;
79124;SDS011;68527;39.470;-0.376;2023-06-10T05:49:53;6.40;;;3.00;;
79124;SDS011;68527;39.470;-0.376;2023-06-10T05:52:18;4.40;;;3.00;;
79124;SDS011;68527;39.470;-0.376;2023-06-10T05:54:44;4.50;;;3.20;;
79124;SDS011;68527;39.470;-0.376;2023-06-10T05:57:09;4.30;;;2.90;;
79124;SDS011;68527;39.470;-0.376;2023-06-10T05:59:35;4.50;;;3.00;;
79124;SDS011;68527;39.470;-0.376;2023-06-10T06:02:01;4.80;;;2.80;;
79124;SDS011;68527;39.470;-0.376;2023-06-10T06:04:27;4.40;;;3.50;;
79124;SDS011;68527;39.470;-0.376;2023-06-10T06:06:52;6.50;;;3.50;;
79124;SDS011;68527;39.470;-0.376;2023-06-10T06:09:18;4.30;;;3.10;;
79124;SDS011;68527;39.470;-0.376;2023-06-10T06:11:43;4.40;;;3.10;;
79124;SDS011;68527;39.470;-0.376;2023-06-10T06:14:09;4.80;;;3.40;;
79124;SDS011;68527;39.470;-0.376;2023-06-10T06:16:35;4.10;;;3.10;;
79124;SDS011;68527;39.470;-0.376;2023-06-10T06:19:02;3.40;;;2.80;;
79124;SDS011;68527;39.470;-0.376;2023-06-10T06:21:27;4.20;;;3.30;;
79124;SDS011;68527;39.470;-0.376;2023-06-10T06:23:53;4.10;;;3.40;;
79124;SDS011;68527;39.470;-0.376;2023-06-10T06:26:18;3.90;;;2.90;;
79124;SDS011;68527;39.470;-0.376;2023-06-10T06:28:44;4.00;;;3.10;;
79124;SDS011;68527;39.470;-0.376;2023-06-10T06:33:35;4.80;;;3.10;;
79124;SDS011;68527;39.470;-0.376;2023-06-10T06:36:01;4.50;;;3.10;;
79124;SDS011;68527;39.470;-0.376;2023-06-10T06:38:26;4.40;;;3.40;;
79124;SDS011;68527;39.470;-0.376;2023-06-10T06:40:52;4.60;;;3.20;;
79124;SDS011;68527;39.470;-0.376;2023-06-10T06:43:18;5.20;;;3.20;;
79124;SDS011;68527;39.470;-0.376;2023-06-10T06:45:44;4.00;;;3.00;;
79124;SDS011;68527;39.470;-0.376;2023-06-10T06:48:11;4.40;;;3.40;;
79124;SDS011;68527;39.470;-0.376;2023-06-10T06:50:37;5.00;;;3.20;;
79124;SDS011;68527;39.470;-0.376;2023-06-10T06:53:02;4.20;;;3.10;;
79124;SDS011;68527;39.470;-0.376;2023-06-10T06:55:29;4.10;;;3.00;;
79124;SDS011;68527;39.470;-0.376;2023-06-10T06:57:54;4.50;;;3.30;;
79124;SDS011;68527;39.470;-0.376;2023-06-10T07:00:21;4.10;;;3.40;;
79124;SDS011;68527;39.470;-0.376;2023-06-10T07:02:50;4.00;;;3.20;;
79124;SDS011;68527;39.470;-0.376;2023-06-10T07:05:15;4.30;;;3.50;;
79124;SDS011;68527;39.470;-0.376;2023-06-10T07:07:41;6.40;;;3.30;;
79124;SDS011;68527;39.470;-0.376;2023-06-10T07:10:07;3.80;;;2.80;;
79124;SDS011;68527;39.470;-0.376;2023-06-10T07:12:33;4.00;;;3.00;;
79124;SDS011;68527;39.470;-0.376;2023-06-10T07:14:58;4.50;;;3.30;;
79124;SDS011;68527;39.470;-0.376;2023-06-10T07:17:24;5.90;;;3.90;;
79124;SDS011;68527;39.470;-0.376;2023-06-10T07:19:49;8.20;;;3.70;;
79124;SDS011;68527;39.470;-0.376;2023-06-10T07:22:16;4.90;;;3.30;;
79124;SDS011;68527;39.470;-0.376;2023-06-10T07:24:42;5.90;;;3.40;;
79124;SDS011;68527;39.470;-0.376;2023-06-10T07:27:08;5.80;;;3.70;;
79124;SDS011;68527;39.470;-0.376;2023-06-10T07:29:35;5.60;;;3.30;;
79124;SDS011;68527;39.470;-0.376;2023-06-10T07:32:02;6.20;;;3.40;;
79124;SDS011;68527;39.470;-0.376;2023-06-10T07:34:28;4.90;;;3.10;;
79124;SDS011;68527;39.470;-0.376;2023-06-10T07:36:54;5.70;;;3.40;;
79124;SDS011;68527;39.470;-0.376;2023-06-10T07:39:19;5.70;;;3.70;;
79124;SDS011;68527;39.470;-0.376;2023-06-10T07:41:45;8.70;;;3.70;;
79124;SDS011;68527;39.470;-0.376;2023-06-10T07:44:11;5.30;;;3.70;;
79124;SDS011;68527;39.470;-0.376;2023-06-10T07:46:36;6.30;;;3.50;;
79124;SDS011;68527;39.470;-0.376;2023-06-10T07:49:02;5.00;;;3.40;;
79124;SDS011;68527;39.470;-0.376;2023-06-10T07:51:27;6.10;;;3.60;;
79124;SDS011;68527;39.470;-0.376;2023-06-10T07:53:53;10.20;;;3.90;;
79124;SDS011;68527;39.470;-0.376;2023-06-10T07:56:19;7.90;;;3.20;;
79124;SDS011;68527;39.470;-0.376;2023-06-10T07:58:46;7.10;;;3.90;;
79124;SDS011;68527;39.470;-0.376;2023-06-10T08:01:12;6.00;;;3.60;;
79124;SDS011;68527;39.470;-0.376;2023-06-10T08:03:37;5.90;;;3.60;;
79124;SDS011;68527;39.470;-0.376;2023-06-10T08:06:03;5.70;;;3.30;;
79124;SDS011;68527;39.470;-0.376;2023-06-10T08:08:30;8.90;;;3.50;;
79124;SDS011;68527;39.470;-0.376;2023-06-10T08:10:56;4.60;;;3.60;;
79124;SDS011;68527;39.470;-0.376;2023-06-10T08:13:21;9.30;;;3.80;;
79124;SDS011;68527;39.470;-0.376;2023-06-10T08:15:47;6.80;;;3.50;;
79124;SDS011;68527;39.470;-0.376;2023-06-10T08:18:15;6.40;;;3.70;;
79124;SDS011;68527;39.470;-0.376;2023-06-10T08:20:41;6.40;;;4.10;;
79124;SDS011;68527;39.470;-0.376;2023-06-10T08:23:07;7.20;;;4.20;;
79124;SDS011;68527;39.470;-0.376;2023-06-10T08:25:32;9.10;;;4.70;;
79124;SDS011;68527;39.470;-0.376;2023-06-10T08:27:58;5.10;;;3.90;;
79124;SDS011;68527;39.470;-0.376;2023-06-10T08:30:23;7.50;;;4.10;;
79124;SDS011;68527;39.470;-0.376;2023-06-10T08:32:49;6.40;;;3.80;;
79124;SDS011;68527;39.470;-0.376;2023-06-10T08:35:15;6.00;;;4.10;;
79124;SDS011;68527;39.470;-0.376;2023-06-10T08:37:40;6.10;;;4.30;;
79124;SDS011;68527;39.470;-0.376;2023-06-10T08:40:06;6.30;;;4.20;;
79124;SDS011;68527;39.470;-0.376;2023-06-10T08:45:03;5.40;;;3.90;;
79124;SDS011;68527;39.470;-0.376;2023-06-10T08:47:31;6.90;;;4.40;;
79124;SDS011;68527;39.470;-0.376;2023-06-10T08:50:01;6.10;;;4.10;;
79124;SDS011;68527;39.470;-0.376;2023-06-10T08:52:29;6.10;;;4.40;;
79124;SDS011;68527;39.470;-0.376;2023-06-10T08:55:13;6.20;;;4.40;;
79124;SDS011;68527;39.470;-0.376;2023-06-10T08:57:41;7.00;;;4.70;;
79124;SDS011;68527;39.470;-0.376;2023-06-10T09:00:09;7.10;;;4.50;;
79124;SDS011;68527;39.470;-0.376;2023-06-10T09:02:39;5.90;;;4.20;;
79124;SDS011;68527;39.470;-0.376;2023-06-10T09:05:08;7.10;;;4.40;;
79124;SDS011;68527;39.470;-0.376;2023-06-10T09:07:34;8.00;;;5.10;;
79124;SDS011;68527;39.470;-0.376;2023-06-10T09:10:01;6.00;;;4.80;;
79124;SDS011;68527;39.470;-0.376;2023-06-10T09:12:32;8.30;;;4.80;;
79124;SDS011;68527;39.470;-0.376;2023-06-10T09:14:59;6.30;;;4.50;;
79124;SDS011;68527;39.470;-0.376;2023-06-10T09:17:25;7.10;;;5.10;;
79124;SDS011;68527;39.470;-0.376;2023-06-10T09:19:52;8.10;;;5.10;;
79124;SDS011;68527;39.470;-0.376;2023-06-10T09:22:19;8.20;;;5.60;;
79124;SDS011;68527;39.470;-0.376;2023-06-10T09:24:46;6.50;;;5.20;;
79124;SDS011;68527;39.470;-0.376;2023-06-10T09:27:11;8.30;;;4.80;;
79124;SDS011;68527;39.470;-0.376;2023-06-10T09:32:13;6.80;;;5.20;;
79124;SDS011;68527;39.470;-0.376;2023-06-10T09:34:39;7.60;;;4.70;;
79124;SDS011;68527;39.470;-0.376;2023-06-10T09:37:04;6.70;;;4.40;;
79124;SDS011;68527;39.470;-0.376;2023-06-10T09:39:30;6.50;;;4.50;;
79124;SDS011;68527;39.470;-0.376;2023-06-10T09:41:56;6.40;;;4.70;;
79124;SDS011;68527;39.470;-0.376;2023-06-10T09:44:22;6.30;;;4.60;;
79124;SDS011;68527;39.470;-0.376;2023-06-10T09:46:49;7.00;;;4.80;;
79124;SDS011;68527;39.470;-0.376;2023-06-10T09:49:19;5.80;;;4.50;;
79124;SDS011;68527;39.470;-0.376;2023-06-10T09:51:48;5.60;;;4.60;;
79124;SDS011;68527;39.470;-0.376;2023-06-10T09:54:18;5.80;;;4.20;;
79124;SDS011;68527;39.470;-0.376;2023-06-10T09:56:46;5.30;;;4.10;;
79124;SDS011;68527;39.470;-0.376;2023-06-10T09:59:15;5.50;;;4.10;;
79124;SDS011;68527;39.470;-0.376;2023-06-10T10:01:41;5.00;;;3.90;;
79124;SDS011;68527;39.470;-0.376;2023-06-10T10:04:06;5.80;;;4.20;;
79124;SDS011;68527;39.470;-0.376;2023-06-10T10:06:32;5.40;;;3.80;;
79124;SDS011;68527;39.470;-0.376;2023-06-10T10:08:59;5.80;;;4.10;;
79124;SDS011;68527;39.470;-0.376;2023-06-10T10:11:25;6.80;;;4.50;;
79124;SDS011;68527;39.470;-0.376;2023-06-10T10:13:52;5.30;;;3.80;;
79124;SDS011;68527;39.470;-0.376;2023-06-10T10:16:21;5.60;;;4.30;;
79124;SDS011;68527;39.470;-0.376;2023-06-10T10:18:56;5.20;;;3.60;;
79124;SDS011;68527;39.470;-0.376;2023-06-10T10:21:26;5.70;;;4.30;;
79124;SDS011;68527;39.470;-0.376;2023-06-10T10:23:53;5.40;;;4.00;;
79124;SDS011;68527;39.470;-0.376;2023-06-10T10:26:35;5.90;;;4.20;;
79124;SDS011;68527;39.470;-0.376;2023-06-10T10:29:07;5.90;;;3.80;;
79124;SDS011;68527;39.470;-0.376;2023-06-10T10:31:36;5.60;;;4.20;;
79124;SDS011;68527;39.470;-0.376;2023-06-10T10:34:04;6.10;;;3.90;;
79124;SDS011;68527;39.470;-0.376;2023-06-10T10:36:32;6.00;;;4.20;;
79124;SDS011;68527;39.470;-0.376;2023-06-10T10:38:58;5.20;;;4.10;;
79124;SDS011;68527;39.470;-0.376;2023-06-10T10:41:24;5.50;;;4.20;;
79124;SDS011;68527;39.470;-0.376;2023-06-10T10:43:51;5.80;;;4.30;;
79124;SDS011;68527;39.470;-0.376;2023-06-10T10:46:17;7.70;;;4.10;;
79124;SDS011;68527;39.470;-0.376;2023-06-10T10:48:43;6.80;;;5.10;;
79124;SDS011;68527;39.470;-0.376;2023-06-10T10:51:10;4.90;;;4.10;;
79124;SDS011;68527;39.470;-0.376;2023-06-10T10:53:36;7.10;;;4.80;;
79124;SDS011;68527;39.470;-0.376;2023-06-10T10:56:13;7.50;;;5.00;;
79124;SDS011;68527;39.470;-0.376;2023-06-10T10:58:40;7.70;;;5.30;;
79124;SDS011;68527;39.470;-0.376;2023-06-10T11:01:13;6.30;;;4.80;;
79124;SDS011;68527;39.470;-0.376;2023-06-10T11:03:43;7.70;;;5.90;;
79124;SDS011;68527;39.470;-0.376;2023-06-10T11:06:13;6.20;;;5.00;;
79124;SDS011;68527;39.470;-0.376;2023-06-10T11:11:23;8.80;;;5.80;;
79124;SDS011;68527;39.470;-0.376;2023-06-10T11:13:57;8.60;;;6.40;;
79124;SDS011;68527;39.470;-0.376;2023-06-10T11:16:26;9.60;;;6.80;;
79124;SDS011;68527;39.470;-0.376;2023-06-10T11:18:53;9.00;;;6.30;;
79124;SDS011;68527;39.470;-0.376;2023-06-10T11:21:20;9.60;;;7.00;;
79124;SDS011;68527;39.470;-0.376;2023-06-10T11:23:45;8.10;;;6.40;;
79124;SDS011;68527;39.470;-0.376;2023-06-10T11:31:21;10.30;;;7.90;;
79124;SDS011;68527;39.470;-0.376;2023-06-10T11:33:58;11.10;;;7.60;;
79124;SDS011;68527;39.470;-0.376;2023-06-10T11:36:32;10.60;;;7.90;;
79124;SDS011;68527;39.470;-0.376;2023-06-10T11:39:00;11.20;;;8.40;;
79124;SDS011;68527;39.470;-0.376;2023-06-10T11:41:27;10.70;;;7.40;;
79124;SDS011;68527;39.470;-0.376;2023-06-10T11:43:54;12.00;;;8.20;;
79124;SDS011;68527;39.470;-0.376;2023-06-10T11:46:23;11.50;;;8.20;;
79124;SDS011;68527;39.470;-0.376;2023-06-10T11:48:53;10.00;;;7.70;;
79124;SDS011;68527;39.470;-0.376;2023-06-10T11:51:20;10.60;;;7.80;;
79124;SDS011;68527;39.470;-0.376;2023-06-10T11:53:46;11.50;;;8.50;;
79124;SDS011;68527;39.470;-0.376;2023-06-10T11:56:13;10.60;;;8.00;;
79124;SDS011;68527;39.470;-0.376;2023-06-10T11:58:44;11.90;;;8.10;;
79124;SDS011;68527;39.470;-0.376;2023-06-10T12:01:10;10.20;;;7.60;;
79124;SDS011;68527;39.470;-0.376;2023-06-10T12:03:36;12.70;;;7.90;;
79124;SDS011;68527;39.470;-0.376;2023-06-10T12:06:06;11.40;;;8.20;;
79124;SDS011;68527;39.470;-0.376;2023-06-10T12:08:35;12.20;;;8.70;;
79124;SDS011;68527;39.470;-0.376;2023-06-10T12:11:06;11.00;;;8.50;;
79124;SDS011;68527;39.470;-0.376;2023-06-10T12:13:32;12.10;;;9.10;;
79124;SDS011;68527;39.470;-0.376;2023-06-10T12:16:07;10.40;;;8.40;;
79124;SDS011;68527;39.470;-0.376;2023-06-10T12:18:34;11.40;;;8.50;;
79124;SDS011;68527;39.470;-0.376;2023-06-10T12:21:00;11.10;;;7.90;;
79124;SDS011;68527;39.470;-0.376;2023-06-10T12:23:25;12.10;;;8.90;;
79124;SDS011;68527;39.470;-0.376;2023-06-10T12:25:51;11.20;;;8.10;;
79124;SDS011;68527;39.470;-0.376;2023-06-10T12:28:25;12.10;;;8.40;;
79124;SDS011;68527;39.470;-0.376;2023-06-10T12:30:51;12.70;;;8.70;;
79124;SDS011;68527;39.470;-0.376;2023-06-10T12:33:31;10.90;;;8.30;;
79124;SDS011;68527;39.470;-0.376;2023-06-10T12:35:57;10.40;;;8.20;;
79124;SDS011;68527;39.470;-0.376;2023-06-10T12:38:25;11.00;;;7.70;;
79124;SDS011;68527;39.470;-0.376;2023-06-10T12:41:00;11.20;;;8.40;;
79124;SDS011;68527;39.470;-0.376;2023-06-10T12:43:26;11.70;;;8.60;;
79124;SDS011;68527;39.470;-0.376;2023-06-10T12:45:52;11.40;;;8.20;;
79124;SDS011;68527;39.470;-0.376;2023-06-10T12:53:22;10.30;;;8.00;;
79124;SDS011;68527;39.470;-0.376;2023-06-10T12:55:49;11.20;;;8.00;;
79124;SDS011;68527;39.470;-0.376;2023-06-10T12:58:15;10.40;;;8.60;;
79124;SDS011;68527;39.470;-0.376;2023-06-10T13:00:41;10.40;;;8.50;;
79124;SDS011;68527;39.470;-0.376;2023-06-10T13:03:08;11.20;;;8.10;;
79124;SDS011;68527;39.470;-0.376;2023-06-10T13:05:35;10.70;;;7.80;;
79124;SDS011;68527;39.470;-0.376;2023-06-10T13:08:03;11.30;;;8.40;;
79124;SDS011;68527;39.470;-0.376;2023-06-10T13:10:33;11.40;;;8.40;;
79124;SDS011;68527;39.470;-0.376;2023-06-10T13:13:00;12.50;;;9.00;;
79124;SDS011;68527;39.470;-0.376;2023-06-10T13:15:26;10.20;;;8.10;;
79124;SDS011;68527;39.470;-0.376;2023-06-10T13:17:52;13.60;;;8.40;;
79124;SDS011;68527;39.470;-0.376;2023-06-10T13:20:18;12.10;;;8.70;;
79124;SDS011;68527;39.470;-0.376;2023-06-10T13:22:44;11.80;;;9.30;;
79124;SDS011;68527;39.470;-0.376;2023-06-10T13:25:10;10.30;;;8.40;;
79124;SDS011;68527;39.470;-0.376;2023-06-10T13:27:36;10.60;;;8.10;;
79124;SDS011;68527;39.470;-0.376;2023-06-10T13:30:07;11.60;;;8.40;;
79124;SDS011;68527;39.470;-0.376;2023-06-10T13:32:33;11.10;;;8.20;;
79124;SDS011;68527;39.470;-0.376;2023-06-10T13:34:59;13.40;;;9.00;;
79124;SDS011;68527;39.470;-0.376;2023-06-10T13:37:25;11.00;;;8.20;;
79124;SDS011;68527;39.470;-0.376;2023-06-10T13:39:51;11.60;;;7.80;;
79124;SDS011;68527;39.470;-0.376;2023-06-10T13:42:17;12.30;;;8.50;;
79124;SDS011;68527;39.470;-0.376;2023-06-10T13:44:43;12.20;;;8.40;;
79124;SDS011;68527;39.470;-0.376;2023-06-10T13:47:08;11.60;;;8.70;;
79124;SDS011;68527;39.470;-0.376;2023-06-10T13:49:34;11.80;;;8.40;;
79124;SDS011;68527;39.470;-0.376;2023-06-10T13:52:01;12.40;;;9.00;;
79124;SDS011;68527;39.470;-0.376;2023-06-10T13:54:27;11.70;;;8.40;;
79124;SDS011;68527;39.470;-0.376;2023-06-10T13:56:52;14.20;;;9.00;;
79124;SDS011;68527;39.470;-0.376;2023-06-10T13:59:18;12.90;;;9.00;;
79124;SDS011;68527;39.470;-0.376;2023-06-10T14:01:44;12.60;;;8.80;;
79124;SDS011;68527;39.470;-0.376;2023-06-10T14:04:10;11.90;;;8.70;;
79124;SDS011;68527;39.470;-0.376;2023-06-10T14:06:35;11.70;;;8.60;;
79124;SDS011;68527;39.470;-0.376;2023-06-10T14:09:01;13.80;;;8.80;;
79124;SDS011;68527;39.470;-0.376;2023-06-10T14:11:27;12.60;;;8.40;;
79124;SDS011;68527;39.470;-0.376;2023-06-10T14:13:52;12.00;;;8.50;;
79124;SDS011;68527;39.470;-0.376;2023-06-10T14:16:20;12.70;;;8.90;;
79124;SDS011;68527;39.470;-0.376;2023-06-10T14:18:45;10.40;;;7.70;;
79124;SDS011;68527;39.470;-0.376;2023-06-10T14:21:11;11.20;;;8.30;;
79124;SDS011;68527;39.470;-0.376;2023-06-10T14:23:37;11.00;;;7.90;;
79124;SDS011;68527;39.470;-0.376;2023-06-10T14:26:02;11.00;;;7.60;;
79124;SDS011;68527;39.470;-0.376;2023-06-10T14:28:28;13.60;;;8.30;;
79124;SDS011;68527;39.470;-0.376;2023-06-10T14:30:54;10.20;;;7.80;;
79124;SDS011;68527;39.470;-0.376;2023-06-10T14:33:20;10.90;;;7.70;;
79124;SDS011;68527;39.470;-0.376;2023-06-10T14:35:45;11.70;;;8.10;;
79124;SDS011;68527;39.470;-0.376;2023-06-10T14:38:11;9.60;;;7.30;;
79124;SDS011;68527;39.470;-0.376;2023-06-10T14:40:36;12.90;;;8.10;;
79124;SDS011;68527;39.470;-0.376;2023-06-10T14:43:02;10.70;;;7.50;;
79124;SDS011;68527;39.470;-0.376;2023-06-10T14:45:34;10.10;;;7.40;;
79124;SDS011;68527;39.470;-0.376;2023-06-10T14:48:01;10.40;;;7.60;;
79124;SDS011;68527;39.470;-0.376;2023-06-10T14:50:26;12.00;;;8.20;;
79124;SDS011;68527;39.470;-0.376;2023-06-10T14:52:52;10.30;;;7.20;;
79124;SDS011;68527;39.470;-0.376;2023-06-10T14:55:18;9.70;;;7.10;;